Time;durP1;ratioP1;P1;durP2;ratioP2;P2;SDS_P1;SDS_P2;PMS_P1;PMS_P2;Temp;Humidity;BMP_temperature;BMP_pressure;BME280_temperature;BME280_humidity;BME280_pressure;Samples;Min_cycle;Max_cycle;Signal;HPM_P1;HPM_P2
2022/04/09 00:02:55;;;;;;;14.03;8.23;;;3.20;99.90;;;;;;10319779;28;20238;-76
2022/04/09 00:08:16;;;;;;;9.90;6.03;;;3.20;99.90;;;;;;10319588;28;20218;-76
2022/04/09 00:13:41;;;;;;;10.13;5.80;;;3.20;99.90;;;;;;10286476;28;20256;-82
2022/04/09 00:19:02;;;;;;;10.80;5.50;;;3.20;99.90;;;;;;10301245;28;20482;-76
2022/04/09 00:24:24;;;;;;;10.37;4.40;;;3.20;99.90;;;;;;10319385;28;20218;-76
2022/04/09 00:29:45;;;;;;;5.80;3.10;;;3.10;99.90;;;;;;10329436;28;20285;-76
2022/04/09 00:35:07;;;;;;;5.23;3.27;;;3.10;99.90;;;;;;10318696;28;20198;-76
2022/04/09 00:40:29;;;;;;;7.63;3.43;;;3.10;99.90;;;;;;10318631;28;20202;-77
2022/04/09 00:45:51;;;;;;;7.97;4.00;;;3.20;99.90;;;;;;10303659;28;20234;-76
2022/04/09 00:51:12;;;;;;;5.47;3.87;;;3.20;99.90;;;;;;10317109;28;20220;-78
2022/04/09 00:56:37;;;;;;;4.70;3.30;;;3.30;99.90;;;;;;10287383;28;20198;-77
2022/04/09 01:01:59;;;;;;;5.63;3.50;;;3.40;99.90;;;;;;10317447;28;20201;-77
2022/04/09 01:07:21;;;;;;;8.73;4.50;;;3.30;99.90;;;;;;10303253;28;20367;-77
2022/04/09 01:12:42;;;;;;;10.20;4.80;;;3.30;99.90;;;;;;10296164;28;20443;-76
2022/04/09 01:18:04;;;;;;;10.47;4.40;;;3.30;99.90;;;;;;10285934;28;20504;-77
2022/04/09 01:23:27;;;;;;;9.00;4.23;;;3.30;99.90;;;;;;10285853;28;20225;-77
2022/04/09 01:28:49;;;;;;;13.83;6.20;;;3.10;99.90;;;;;;10315812;28;20491;-79
2022/04/09 01:34:15;;;;;;;6.90;4.70;;;3.10;99.90;;;;;;10272656;28;20206;-77
2022/04/09 01:39:37;;;;;;;9.10;4.90;;;3.00;99.90;;;;;;10285543;28;20224;-77
2022/04/09 01:44:58;;;;;;;7.23;4.63;;;2.90;99.90;;;;;;10301578;28;20241;-77
2022/04/09 01:50:26;;;;;;;6.47;4.80;;;2.80;99.90;;;;;;10288131;28;20208;-77
2022/04/09 01:55:47;;;;;;;11.93;4.47;;;2.80;99.90;;;;;;10272029;28;20519;-78
2022/04/09 02:01:09;;;;;;;9.20;4.83;;;2.80;99.90;;;;;;10260409;29;20198;-76
2022/04/09 02:06:32;;;;;;;12.23;5.33;;;2.70;99.90;;;;;;10261262;29;20556;-77
2022/04/09 02:11:53;;;;;;;10.13;6.20;;;2.60;99.90;;;;;;10292379;28;20208;-78
2022/04/09 02:17:15;;;;;;;8.80;5.27;;;2.60;99.90;;;;;;10284589;28;20215;-77
2022/04/09 02:22:38;;;;;;;7.47;4.87;;;2.60;99.90;;;;;;10299099;28;20276;-77
2022/04/09 02:28:00;;;;;;;8.93;4.90;;;2.60;99.90;;;;;;10324112;28;20197;-77
2022/04/09 02:33:21;;;;;;;8.97;5.33;;;2.60;99.90;;;;;;10297120;28;20500;-76
2022/04/09 02:38:43;;;;;;;5.43;4.17;;;2.60;99.90;;;;;;10283952;28;20645;-76
2022/04/09 02:44:06;;;;;;;6.80;3.97;;;2.60;99.90;;;;;;10299994;28;20283;-77
2022/04/09 02:49:27;;;;;;;7.67;4.30;;;2.50;99.90;;;;;;10283956;28;20198;-85
2022/04/09 02:54:49;;;;;;;6.93;4.43;;;2.60;99.90;;;;;;10304062;28;20204;-76
2022/04/09 03:00:12;;;;;;;7.77;4.50;;;2.60;99.90;;;;;;10291531;28;20204;-77
2022/04/09 03:05:35;;;;;;;6.80;3.77;;;2.70;99.90;;;;;;10308023;28;20531;-76
2022/04/09 03:10:59;;;;;;;10.43;4.50;;;2.80;99.90;;;;;;10307290;28;20496;-76
2022/04/09 03:16:21;;;;;;;8.50;3.90;;;2.80;99.90;;;;;;10307466;28;20210;-77
2022/04/09 03:21:45;;;;;;;7.23;4.30;;;2.80;99.90;;;;;;10307153;28;20249;-77
2022/04/09 03:27:06;;;;;;;8.30;4.53;;;2.70;99.90;;;;;;10308842;28;20462;-77
2022/04/09 03:32:28;;;;;;;6.40;4.40;;;2.60;99.90;;;;;;10289299;28;20206;-76
2022/04/09 03:37:50;;;;;;;8.50;5.33;;;2.50;99.90;;;;;;10253625;29;20225;-76
2022/04/09 03:43:17;;;;;;;9.03;5.00;;;2.40;99.90;;;;;;10302497;28;20240;-76
2022/04/09 03:48:38;;;;;;;8.87;5.33;;;2.40;99.90;;;;;;10306210;28;20244;-76
2022/04/09 03:54:01;;;;;;;6.27;4.60;;;2.40;99.90;;;;;;10265961;29;20217;-76
2022/04/09 03:59:23;;;;;;;9.70;4.97;;;2.40;99.90;;;;;;10255024;28;20194;-76
2022/04/09 04:04:44;;;;;;;10.30;5.03;;;2.30;99.90;;;;;;10288110;28;20459;-78
2022/04/09 04:10:12;;;;;;;7.93;5.00;;;2.30;99.90;;;;;;10288601;28;20283;-76
2022/04/09 04:15:36;;;;;;;8.67;4.97;;;2.30;99.90;;;;;;10288644;28;20217;-77
2022/04/09 04:20:59;;;;;;;7.63;5.50;;;2.30;99.90;;;;;;10304650;28;20196;-77
2022/04/09 04:26:21;;;;;;;6.70;5.00;;;2.30;99.90;;;;;;10288458;28;20256;-76
2022/04/09 04:31:45;;;;;;;9.50;5.33;;;2.30;99.90;;;;;;10304285;28;20374;-77
2022/04/09 04:37:07;;;;;;;7.93;4.93;;;2.40;99.90;;;;;;10318337;28;20204;-78
2022/04/09 04:42:30;;;;;;;9.70;6.27;;;2.40;99.90;;;;;;10290239;28;20241;-83
2022/04/09 04:47:56;;;;;;;12.37;6.40;;;2.40;99.90;;;;;;10287872;28;20219;-76
2022/04/09 04:53:22;;;;;;;9.00;5.53;;;2.50;99.90;;;;;;10318077;28;20381;-83
2022/04/09 04:58:50;;;;;;;8.27;6.07;;;2.60;99.90;;;;;;10303402;28;20198;-76
2022/04/09 05:04:12;;;;;;;9.30;6.57;;;2.70;99.90;;;;;;10263190;29;20456;-75
2022/04/09 05:09:41;;;;;;;15.17;11.63;;;2.80;99.90;;;;;;10278987;28;20194;-76
2022/04/09 05:15:08;;;;;;;22.27;10.10;;;2.90;99.90;;;;;;10303055;28;20210;-82
2022/04/09 05:20:31;;;;;;;16.20;8.67;;;3.00;99.90;;;;;;10316735;28;20207;-83
2022/04/09 05:25:57;;;;;;;17.60;7.77;;;3.10;99.90;;;;;;10286478;28;20234;-76
2022/04/09 05:31:27;;;;;;;13.13;7.37;;;3.10;99.90;;;;;;10321281;28;20416;-75
2022/04/09 05:36:49;;;;;;;10.70;4.90;;;3.20;99.90;;;;;;10285698;28;20212;-77
2022/04/09 05:42:12;;;;;;;10.37;5.17;;;3.40;99.90;;;;;;10302004;28;20241;-79
2022/04/09 05:47:39;;;;;;;9.23;4.10;;;3.40;99.90;;;;;;10301739;28;20201;-76
2022/04/09 05:53:02;;;;;;;8.53;4.37;;;3.60;99.90;;;;;;10256766;29;20290;-77
2022/04/09 05:58:23;;;;;;;7.80;4.40;;;3.70;99.90;;;;;;10261495;28;20205;-79
2022/04/09 06:03:50;;;;;;;6.87;4.03;;;4.00;99.90;;;;;;10296347;28;20561;-82
2022/04/09 06:09:13;;;;;;;7.73;3.37;;;4.00;99.90;;;;;;10284437;28;20280;-84
2022/04/09 06:14:47;;;;;;;6.67;3.47;;;3.90;99.90;;;;;;10277762;28;20296;-78
2022/04/09 06:20:09;;;;;;;5.47;2.43;;;4.00;99.90;;;;;;10300279;28;20201;-76
2022/04/09 06:25:34;;;;;;;6.70;2.60;;;4.00;99.90;;;;;;10284426;28;20309;-77
2022/04/09 06:30:58;;;;;;;5.17;2.70;;;4.80;99.90;;;;;;10305572;28;20195;-79
2022/04/09 06:36:20;;;;;;;7.17;3.30;;;6.30;99.90;;;;;;10284251;28;20422;-78
2022/04/09 06:41:43;;;;;;;7.03;3.33;;;6.90;99.90;;;;;;10299756;28;20242;-77
2022/04/09 06:47:10;;;;;;;6.80;2.60;;;6.10;99.90;;;;;;10271518;28;20559;-77
2022/04/09 06:52:39;;;;;;;10.90;3.00;;;5.30;99.90;;;;;;10299899;28;20195;-84
2022/04/09 06:58:03;;;;;;;6.67;3.30;;;4.70;99.90;;;;;;10300145;28;20204;-76
2022/04/09 07:03:29;;;;;;;9.50;3.93;;;4.10;99.90;;;;;;10299786;28;20248;-77
2022/04/09 07:08:50;;;;;;;8.77;3.30;;;4.00;99.90;;;;;;10313093;28;20234;-76
2022/04/09 07:14:11;;;;;;;10.60;2.80;;;5.00;99.90;;;;;;10314406;28;20432;-77
2022/04/09 07:19:33;;;;;;;9.00;3.10;;;7.00;99.90;;;;;;10283568;28;20228;-84
2022/04/09 07:24:55;;;;;;;10.57;4.13;;;7.70;99.90;;;;;;10273443;29;20552;-77
2022/04/09 07:30:18;;;;;;;7.40;2.60;;;8.70;99.90;;;;;;10314047;28;20187;-81
2022/04/09 07:35:39;;;;;;;6.23;2.70;;;10.00;99.90;;;;;;10313823;28;20205;-79
2022/04/09 07:41:01;;;;;;;7.37;1.83;;;11.00;99.90;;;;;;10317545;28;20425;-77
2022/04/09 07:46:22;;;;;;;5.60;2.07;;;11.30;99.60;;;;;;10319405;28;20230;-77
2022/04/09 07:51:43;;;;;;;6.83;2.10;;;11.00;97.00;;;;;;10307886;28;20208;-85
2022/04/09 07:57:05;;;;;;;8.80;2.20;;;10.60;95.60;;;;;;10308186;28;20200;-85
2022/04/09 08:02:26;;;;;;;10.00;2.70;;;10.90;95.60;;;;;;10306794;28;20216;-85
2022/04/09 08:07:48;;;;;;;9.60;2.50;;;10.20;93.20;;;;;;10306106;28;20270;-83
2022/04/09 08:13:09;;;;;;;6.83;2.40;;;10.10;94.60;;;;;;10319595;28;20197;-78
2022/04/09 08:18:30;;;;;;;5.83;1.87;;;10.50;93.40;;;;;;10318957;28;20392;-77
2022/04/09 08:23:54;;;;;;;6.20;2.40;;;11.60;84.90;;;;;;10319117;28;20226;-78
2022/04/09 08:29:19;;;;;;;6.17;2.13;;;12.40;74.70;;;;;;10310413;28;20197;-81
2022/04/09 08:34:41;;;;;;;8.80;2.73;;;12.20;69.30;;;;;;10325674;28;20205;-78
2022/04/09 08:40:03;;;;;;;5.63;1.80;;;12.80;65.50;;;;;;10307653;28;20198;-77
2022/04/09 08:45:25;;;;;;;8.13;2.03;;;12.10;58.20;;;;;;10252671;29;20245;-77
2022/04/09 08:50:47;;;;;;;18.03;3.30;;;10.50;73.20;;;;;;10240766;29;20189;-82
2022/04/09 08:56:10;;;;;;;11.20;2.57;;;9.90;90.40;;;;;;10264828;29;20206;-79
2022/04/09 09:01:32;;;;;;;9.00;2.23;;;10.90;80.90;;;;;;10292438;28;20196;-76
2022/04/09 09:06:54;;;;;;;6.50;2.40;;;10.40;79.20;;;;;;10276568;29;20228;-83
2022/04/09 09:12:30;;;;;;;6.43;1.97;;;9.50;90.20;;;;;;10292543;28;20203;-77
2022/04/09 09:17:59;;;;;;;6.43;2.30;;;8.90;93.40;;;;;;10277069;28;20234;-78
2022/04/09 09:23:21;;;;;;;7.00;2.07;;;9.20;97.00;;;;;;10271790;29;20235;-77
2022/04/09 09:28:43;;;;;;;10.30;2.57;;;10.80;91.20;;;;;;10290830;28;20191;-77
2022/04/09 09:34:11;;;;;;;9.03;2.80;;;10.80;85.90;;;;;;10287639;28;20205;-78
2022/04/09 09:39:34;;;;;;;12.30;2.53;;;9.60;92.40;;;;;;10276881;29;20434;-80
2022/04/09 09:44:55;;;;;;;6.70;3.50;;;8.80;94.50;;;;;;10290496;28;20601;-77
2022/04/09 09:50:16;;;;;;;19.87;2.33;;;8.60;95.10;;;;;;10276282;29;20219;-77
2022/04/09 09:55:45;;;;;;;13.93;3.07;;;8.60;95.00;;;;;;10234328;29;20230;-76
2022/04/09 10:01:07;;;;;;;4.70;1.50;;;9.10;93.70;;;;;;10238874;29;20186;-77
2022/04/09 10:06:29;;;;;;;4.53;1.50;;;10.60;83.60;;;;;;10274536;29;20225;-77
2022/04/09 10:11:52;;;;;;;6.63;2.17;;;11.70;69.90;;;;;;10274837;29;20205;-79
2022/04/09 10:17:16;;;;;;;4.67;1.63;;;12.50;52.30;;;;;;10276186;28;20197;-78
2022/04/09 10:22:42;;;;;;;3.87;1.33;;;12.90;47.70;;;;;;10274136;28;20209;-78
2022/04/09 10:28:04;;;;;;;10.70;2.10;;;12.80;47.10;;;;;;10299598;28;20214;-81
2022/04/09 10:33:28;;;;;;;5.10;1.53;;;13.30;45.40;;;;;;10279405;28;20209;-77
2022/04/09 10:39:20;;;;;;;4.60;1.43;;;13.70;40.70;;;;;;10274846;29;20198;-79
2022/04/09 10:44:48;;;;;;;7.57;2.33;;;14.00;43.90;;;;;;10289836;28;20306;-80
2022/04/09 10:50:11;;;;;;;4.97;1.60;;;14.30;47.90;;;;;;10273882;29;20198;-84
2022/04/09 10:55:33;;;;;;;5.80;1.87;;;14.70;43.70;;;;;;10274551;29;20221;-85
2022/04/09 11:00:53;;;;;;;4.47;1.42;;;14.90;43.90;;;;;;10260144;29;20502;-78
2022/04/09 11:06:40;;;;;;;6.75;1.73;;;15.40;34.40;;;;;;10274343;29;20246;-82
2022/04/09 11:12:02;;;;;;;5.72;1.50;;;15.10;34.60;;;;;;10273791;29;20201;-77
2022/04/09 11:17:26;;;;;;;6.03;2.90;;;15.00;30.70;;;;;;10279962;28;20283;-80
2022/04/09 11:23:19;;;;;;;5.55;1.27;;;15.20;27.30;;;;;;10280930;29;20200;-77
2022/04/09 11:28:41;;;;;;;7.87;1.53;;;14.10;27.60;;;;;;10289907;28;20201;-78
2022/04/09 11:34:04;;;;;;;6.13;1.27;;;12.60;30.70;;;;;;10281496;29;20236;-78
2022/04/09 11:39:25;;;;;;;3.77;1.30;;;12.00;31.70;;;;;;10295621;28;20204;-78
2022/04/09 11:44:46;;;;;;;5.80;1.67;;;13.30;30.00;;;;;;10308786;28;20267;-78
2022/04/09 11:50:12;;;;;;;5.60;2.17;;;14.20;28.30;;;;;;10306097;28;20197;-75
2022/04/09 11:55:32;;;;;;;2.33;1.10;;;15.00;28.70;;;;;;10305848;28;20198;-76
2022/04/09 12:00:54;;;;;;;3.17;1.50;;;15.10;27.30;;;;;;10319217;28;20208;-78
2022/04/09 12:06:15;;;;;;;7.32;2.92;;;15.50;26.40;;;;;;10320055;28;20522;-77
2022/04/09 12:11:54;;;;;;;5.13;1.50;;;15.80;25.70;;;;;;10289247;28;20210;-77
2022/04/09 12:17:18;;;;;;;3.93;1.73;;;14.00;26.50;;;;;;10304916;28;20221;-85
2022/04/09 12:22:40;;;;;;;7.60;3.70;;;12.70;29.50;;;;;;10304771;28;20192;-84
2022/04/09 12:28:03;;;;;;;9.63;2.63;;;12.30;29.80;;;;;;10310550;28;20223;-82
2022/04/09 12:33:24;;;;;;;9.57;3.00;;;11.40;30.70;;;;;;10359848;28;20516;-77
2022/04/09 12:38:46;;;;;;;4.40;1.23;;;10.70;31.40;;;;;;10340202;28;20500;-78
2022/04/09 12:44:24;;;;;;;5.40;1.30;;;11.40;31.40;;;;;;10318656;28;20617;-78
2022/04/09 12:49:46;;;;;;;4.87;1.70;;;11.00;30.60;;;;;;10304341;28;20197;-81
2022/04/09 12:55:07;;;;;;;5.13;1.83;;;11.70;30.40;;;;;;10318368;28;20195;-83
2022/04/09 13:00:32;;;;;;;4.60;2.13;;;11.80;31.30;;;;;;10316739;28;20199;-80
2022/04/09 13:05:53;;;;;;;4.57;1.70;;;11.70;32.60;;;;;;10286789;28;20224;-78
2022/04/09 13:11:14;;;;;;;5.77;2.20;;;12.00;33.00;;;;;;10302424;28;20286;-78
2022/04/09 13:16:36;;;;;;;3.27;1.83;;;12.40;33.20;;;;;;10317330;28;20202;-80
2022/04/09 13:21:57;;;;;;;2.20;1.10;;;12.60;30.50;;;;;;10303065;28;20198;-76
2022/04/09 13:27:18;;;;;;;3.23;1.17;;;12.50;31.60;;;;;;10290426;28;20224;-78
2022/04/09 13:32:40;;;;;;;2.73;1.23;;;12.30;30.70;;;;;;10315315;28;20198;-85
2022/04/09 13:38:02;;;;;;;3.93;1.63;;;12.30;31.50;;;;;;10315019;28;20247;-82
2022/04/09 13:43:23;;;;;;;3.07;1.50;;;12.30;29.00;;;;;;10316742;28;20281;-79
2022/04/09 13:48:45;;;;;;;1.83;1.20;;;11.60;29.20;;;;;;10316079;28;20194;-81
2022/04/09 13:54:06;;;;;;;5.67;1.40;;;11.00;30.70;;;;;;10316185;28;20188;-79
2022/04/09 13:59:27;;;;;;;2.47;1.07;;;11.00;32.20;;;;;;10315846;28;20255;-84
2022/04/09 14:04:49;;;;;;;5.37;1.67;;;11.30;33.10;;;;;;10285333;28;20253;-85
2022/04/09 14:10:10;;;;;;;3.10;1.77;;;11.50;32.50;;;;;;10332188;28;20207;-85
2022/04/09 14:15:32;;;;;;;6.93;1.40;;;11.50;32.00;;;;;;10332672;28;20205;-80
2022/04/09 14:20:53;;;;;;;4.47;1.70;;;11.10;31.30;;;;;;10298375;28;20204;-79
2022/04/09 14:26:16;;;;;;;2.50;1.10;;;10.70;32.90;;;;;;10315412;28;20225;-82
2022/04/09 14:31:38;;;;;;;4.80;1.50;;;10.40;34.10;;;;;;10353941;28;20196;-76
2022/04/09 14:36:59;;;;;;;7.07;2.37;;;10.50;35.90;;;;;;10329450;28;20246;-77
2022/04/09 14:42:21;;;;;;;5.00;2.17;;;10.60;39.90;;;;;;10300703;28;20404;-78
2022/04/09 14:47:43;;;;;;;5.47;1.57;;;10.60;41.00;;;;;;10313319;28;20225;-80
2022/04/09 14:53:04;;;;;;;2.67;1.37;;;10.20;42.60;;;;;;10310008;28;20449;-79
2022/04/09 14:58:26;;;;;;;10.50;3.27;;;10.00;46.10;;;;;;10323206;28;20198;-82
2022/04/09 15:03:47;;;;;;;4.90;1.40;;;9.80;48.20;;;;;;10321666;28;20254;-78
2022/04/09 15:09:27;;;;;;;4.53;1.73;;;9.70;52.00;;;;;;10321668;28;20216;-78
2022/04/09 15:14:49;;;;;;;3.70;1.43;;;9.50;47.80;;;;;;10308960;28;20274;-82
2022/04/09 15:20:11;;;;;;;8.10;4.17;;;9.50;46.20;;;;;;10304499;28;20204;-78
2022/04/09 15:25:33;;;;;;;72.10;33.13;;;9.70;47.50;;;;;;10321880;28;20526;-84
2022/04/09 15:30:55;;;;;;;25.80;14.57;;;9.50;62.70;;;;;;10339365;28;20375;-77
2022/04/09 15:36:16;;;;;;;18.83;9.03;;;9.30;75.10;;;;;;10342536;28;20228;-77
2022/04/09 15:41:38;;;;;;;4.60;3.20;;;9.40;84.50;;;;;;10321205;28;20250;-77
2022/04/09 15:46:59;;;;;;;5.47;1.80;;;9.40;79.30;;;;;;10319322;28;20230;-83
2022/04/09 15:52:21;;;;;;;3.57;1.50;;;9.20;72.80;;;;;;10307187;28;20191;-84
2022/04/09 15:57:42;;;;;;;3.37;1.73;;;9.10;64.50;;;;;;10319745;28;20264;-82
2022/04/09 16:03:04;;;;;;;2.13;1.57;;;9.00;66.90;;;;;;10319135;28;20392;-77
2022/04/09 16:08:26;;;;;;;3.10;1.70;;;8.90;73.70;;;;;;10318634;28;20536;-77
2022/04/09 16:13:47;;;;;;;7.90;3.00;;;8.80;80.10;;;;;;10318535;28;20200;-78
2022/04/09 16:19:09;;;;;;;4.40;2.10;;;8.90;77.70;;;;;;10304916;28;20281;-78
2022/04/09 16:24:31;;;;;;;4.07;2.37;;;8.80;87.30;;;;;;10302189;28;20417;-80
2022/04/09 16:29:52;;;;;;;7.73;3.50;;;8.50;92.00;;;;;;10343404;28;20547;-77
2022/04/09 16:35:13;;;;;;;3.00;1.53;;;8.30;94.90;;;;;;10334572;28;20194;-77
2022/04/09 16:40:46;;;;;;;5.33;2.10;;;8.10;96.90;;;;;;10319378;28;20219;-81
2022/04/09 16:46:08;;;;;;;7.53;3.63;;;7.90;98.70;;;;;;10318144;28;20242;-77
2022/04/09 16:51:29;;;;;;;8.10;3.60;;;7.80;99.70;;;;;;10304317;28;20272;-76
2022/04/09 16:56:51;;;;;;;8.60;4.23;;;7.60;99.90;;;;;;10318139;28;20207;-77
2022/04/09 17:02:15;;;;;;;7.17;3.93;;;7.60;99.90;;;;;;10319128;28;20200;-78
2022/04/09 17:07:36;;;;;;;7.27;3.80;;;7.50;99.90;;;;;;10318239;28;20277;-80
2022/04/09 17:12:58;;;;;;;8.07;4.00;;;7.30;99.90;;;;;;10317277;28;20204;-85
2022/04/09 17:18:19;;;;;;;9.97;4.50;;;7.20;99.90;;;;;;10317126;28;20214;-76
2022/04/09 17:23:41;;;;;;;12.67;5.30;;;7.10;99.90;;;;;;10317953;28;20199;-80
2022/04/09 17:29:02;;;;;;;10.07;4.43;;;7.00;99.90;;;;;;10334586;28;20202;-78
2022/04/09 17:34:24;;;;;;;8.40;3.27;;;6.90;99.90;;;;;;10357504;28;20223;-81
2022/04/09 17:39:45;;;;;;;7.50;3.23;;;6.80;99.90;;;;;;10277606;29;20201;-84
2022/04/09 17:45:07;;;;;;;7.70;2.80;;;6.80;99.90;;;;;;10279809;28;20241;-81
2022/04/09 17:50:28;;;;;;;4.83;2.40;;;6.70;99.90;;;;;;10316914;28;20200;-83
2022/04/09 17:55:50;;;;;;;9.27;3.70;;;6.60;99.90;;;;;;10317981;28;20196;-85
2022/04/09 18:01:12;;;;;;;6.60;3.30;;;6.60;99.90;;;;;;10324805;28;20196;-77
2022/04/09 18:06:33;;;;;;;14.93;7.63;;;6.60;99.90;;;;;;10317272;28;20229;-77
2022/04/09 18:11:55;;;;;;;6.07;3.03;;;6.60;99.90;;;;;;10314596;28;20236;-77
2022/04/09 18:17:17;;;;;;;8.40;3.77;;;6.40;99.90;;;;;;10314247;28;20472;-79
2022/04/09 18:22:39;;;;;;;6.67;2.80;;;6.30;99.90;;;;;;10286492;28;20256;-76
2022/04/09 18:28:02;;;;;;;13.63;6.77;;;6.20;99.90;;;;;;10309025;28;20290;-82
2022/04/09 18:33:23;;;;;;;19.07;8.37;;;6.00;99.90;;;;;;10338047;28;20231;-77
2022/04/09 18:38:45;;;;;;;12.07;5.43;;;5.90;99.90;;;;;;10307839;28;20201;-78
2022/04/09 18:44:07;;;;;;;11.63;5.33;;;5.90;99.90;;;;;;10314911;28;20277;-78
2022/04/09 18:49:28;;;;;;;11.00;4.83;;;5.80;99.90;;;;;;10300423;28;20192;-77
2022/04/09 18:54:49;;;;;;;24.57;9.93;;;5.70;99.90;;;;;;10313916;28;20204;-77
2022/04/09 19:00:10;;;;;;;14.63;7.50;;;5.60;99.90;;;;;;10314615;28;20235;-78
2022/04/09 19:05:32;;;;;;;13.17;6.00;;;5.70;99.90;;;;;;10300149;28;20424;-78
2022/04/09 19:10:54;;;;;;;33.93;17.20;;;5.60;99.90;;;;;;10314209;28;20200;-77
2022/04/09 19:16:15;;;;;;;15.33;7.90;;;5.50;99.90;;;;;;10299512;28;20202;-77
2022/04/09 19:21:37;;;;;;;16.03;6.63;;;5.40;99.90;;;;;;10299857;28;20198;-76
2022/04/09 19:27:02;;;;;;;8.33;4.20;;;5.30;99.90;;;;;;10299987;28;20274;-76
2022/04/09 19:32:23;;;;;;;10.80;5.57;;;5.20;99.90;;;;;;10354612;28;20271;-77
2022/04/09 19:37:45;;;;;;;9.30;4.33;;;5.10;99.90;;;;;;10339649;28;20275;-77
2022/04/09 19:43:07;;;;;;;8.27;5.30;;;5.10;99.90;;;;;;10320060;28;20237;-76
2022/04/09 19:48:28;;;;;;;14.33;7.30;;;5.10;99.90;;;;;;10320965;28;20224;-82
2022/04/09 19:53:50;;;;;;;6.93;3.40;;;5.10;99.90;;;;;;10323727;28;20391;-77
2022/04/09 19:59:12;;;;;;;11.17;4.93;;;5.10;99.90;;;;;;10320581;28;20521;-79
2022/04/09 20:04:33;;;;;;;16.27;7.47;;;5.00;99.90;;;;;;10320340;28;20216;-76
2022/04/09 20:09:55;;;;;;;10.27;4.90;;;5.00;99.90;;;;;;10318513;28;20207;-76
2022/04/09 20:15:16;;;;;;;8.47;4.97;;;4.90;99.90;;;;;;10319809;28;20195;-78
2022/04/09 20:20:37;;;;;;;8.73;4.40;;;5.00;99.90;;;;;;10302709;28;20230;-77
2022/04/09 20:25:59;;;;;;;9.07;4.17;;;5.00;99.90;;;;;;10305091;28;20222;-77
2022/04/09 20:31:20;;;;;;;10.03;4.30;;;4.90;99.90;;;;;;10355604;28;20191;-77
2022/04/09 20:36:42;;;;;;;13.43;4.80;;;4.90;99.90;;;;;;10350282;28;20198;-76
2022/04/09 20:42:03;;;;;;;9.13;4.17;;;4.80;99.90;;;;;;10319025;28;20538;-75
2022/04/09 20:47:25;;;;;;;14.00;5.17;;;4.70;99.90;;;;;;10286832;28;20249;-80
2022/04/09 20:52:46;;;;;;;9.80;4.00;;;4.70;99.90;;;;;;10320980;28;20205;-86
2022/04/09 20:58:09;;;;;;;9.43;3.20;;;4.50;99.90;;;;;;10323799;28;20197;-77
2022/04/09 21:03:30;;;;;;;9.30;3.30;;;4.40;99.90;;;;;;10324028;28;20214;-85
2022/04/09 21:08:52;;;;;;;9.37;3.27;;;4.50;99.90;;;;;;10322338;28;20237;-84
2022/04/09 21:14:13;;;;;;;13.03;4.53;;;4.40;99.90;;;;;;10348453;28;20203;-76
2022/04/09 21:19:35;;;;;;;7.70;4.03;;;4.50;99.90;;;;;;10302582;28;20202;-83
2022/04/09 21:24:56;;;;;;;10.90;4.97;;;4.60;99.90;;;;;;10291439;28;20223;-86
2022/04/09 21:30:17;;;;;;;7.87;4.07;;;4.50;99.90;;;;;;10334916;28;20215;-76
2022/04/09 21:35:39;;;;;;;8.27;2.70;;;4.50;99.90;;;;;;10363129;28;20190;-80
2022/04/09 21:41:02;;;;;;;8.97;2.70;;;4.50;99.90;;;;;;10305755;28;20204;-81
2022/04/09 21:46:23;;;;;;;7.53;2.60;;;4.50;99.90;;;;;;10307773;28;20255;-80
2022/04/09 21:51:45;;;;;;;7.07;3.20;;;4.40;99.90;;;;;;10321756;28;20198;-85
2022/04/09 21:57:07;;;;;;;9.37;3.57;;;4.40;99.90;;;;;;10320570;28;20199;-81
2022/04/09 22:02:28;;;;;;;9.27;3.00;;;4.40;99.90;;;;;;10304747;28;20206;-75
2022/04/09 22:07:50;;;;;;;15.97;6.27;;;4.40;99.90;;;;;;10318683;28;20301;-85
2022/04/09 22:13:11;;;;;;;13.23;4.70;;;4.50;99.90;;;;;;10318034;28;20191;-77
2022/04/09 22:18:32;;;;;;;21.90;6.20;;;4.30;99.90;;;;;;10319264;28;20453;-78
2022/04/09 22:23:53;;;;;;;10.20;5.20;;;4.30;99.90;;;;;;10318055;28;20200;-83
2022/04/09 22:29:18;;;;;;;10.53;4.20;;;4.30;99.90;;;;;;10321562;28;20468;-83
2022/04/09 22:34:39;;;;;;;32.00;10.10;;;4.30;99.90;;;;;;10343332;28;20187;-83
2022/04/09 22:40:00;;;;;;;10.93;4.73;;;4.20;99.90;;;;;;10304273;28;20202;-82
2022/04/09 22:45:21;;;;;;;11.00;4.40;;;4.30;99.90;;;;;;10316398;28;20257;-77
2022/04/09 22:50:43;;;;;;;30.00;9.03;;;4.20;99.90;;;;;;10317642;28;20248;-76
2022/04/09 22:56:05;;;;;;;11.67;3.50;;;4.20;99.90;;;;;;10288533;28;20415;-76
2022/04/09 23:01:26;;;;;;;9.17;3.63;;;4.10;99.90;;;;;;10318063;28;20396;-80
2022/04/09 23:06:48;;;;;;;27.83;7.47;;;4.10;99.90;;;;;;10317132;28;20524;-81
2022/04/09 23:12:10;;;;;;;12.97;3.93;;;4.20;99.90;;;;;;10320712;28;20242;-76
2022/04/09 23:17:32;;;;;;;7.67;2.73;;;4.30;99.90;;;;;;10308389;28;20206;-78
2022/04/09 23:22:53;;;;;;;32.60;7.07;;;4.20;99.90;;;;;;10322251;28;20198;-76
2022/04/09 23:28:16;;;;;;;15.80;5.20;;;4.30;99.90;;;;;;10331630;28;20586;-76
2022/04/09 23:33:37;;;;;;;10.23;3.03;;;4.20;99.90;;;;;;10334835;28;20201;-76
2022/04/09 23:38:59;;;;;;;16.40;3.83;;;4.30;99.90;;;;;;10267069;29;20194;-76
2022/04/09 23:44:20;;;;;;;14.07;4.17;;;4.30;99.90;;;;;;10300901;28;20313;-76
2022/04/09 23:49:41;;;;;;;11.70;3.07;;;4.30;99.90;;;;;;10306484;28;20564;-77
2022/04/09 23:55:03;;;;;;;7.07;2.50;;;4.40;99.90;;;;;;10320834;28;20198;-77
